createdAt,value
2022-11-23T00:00:35.023Z,0.00
2022-11-23T00:01:32.341Z,0.00
2022-11-23T00:02:32.418Z,0.00
2022-11-23T00:03:32.301Z,0.00
2022-11-23T00:04:32.300Z,0.00
2022-11-23T00:05:32.282Z,0.00
2022-11-23T00:06:32.277Z,0.00
2022-11-23T00:07:32.327Z,0.00
2022-11-23T00:08:32.290Z,0.00
2022-11-23T00:09:32.425Z,0.00
2022-11-23T00:10:32.245Z,0.00
2022-11-23T00:11:33.023Z,0.00
2022-11-23T00:12:32.214Z,0.00
2022-11-23T00:13:32.190Z,0.00
2022-11-23T00:14:32.313Z,0.00
2022-11-23T00:15:32.168Z,0.00
2022-11-23T00:16:33.026Z,0.00
2022-11-23T00:17:32.160Z,0.00
2022-11-23T00:18:32.168Z,0.00
2022-11-23T00:19:35.025Z,0.00
2022-11-23T00:20:35.041Z,0.00
2022-11-23T00:21:33.027Z,0.00
2022-11-23T00:22:32.102Z,0.00
2022-11-23T00:23:32.123Z,0.00
2022-11-23T00:24:32.096Z,0.00
2022-11-23T00:25:33.021Z,0.00
2022-11-23T00:26:39.022Z,0.00
2022-11-23T00:27:32.041Z,0.00
2022-11-23T00:28:32.041Z,0.00
2022-11-23T00:29:32.338Z,0.00
2022-11-23T00:30:32.040Z,0.00
2022-11-23T00:31:31.991Z,0.00
2022-11-23T00:32:32.007Z,0.00
2022-11-23T00:33:32.527Z,0.00
2022-11-23T00:34:32.056Z,0.00
2022-11-23T00:35:31.948Z,0.00
2022-11-23T00:36:38.527Z,0.00
2022-11-23T00:37:31.929Z,0.00
2022-11-23T00:38:31.941Z,0.00
2022-11-23T00:39:32.170Z,0.00
2022-11-23T00:40:31.887Z,0.00
2022-11-23T00:41:31.864Z,0.00
2022-11-23T00:42:36.662Z,0.00
2022-11-23T00:43:32.856Z,0.00
2022-11-23T00:44:31.826Z,0.00
2022-11-23T00:45:32.044Z,0.00
2022-11-23T00:46:32.545Z,0.00
2022-11-23T00:47:31.838Z,0.00
2022-11-23T00:48:31.800Z,0.00
2022-11-23T00:49:32.191Z,0.00
2022-11-23T00:50:31.788Z,0.00
2022-11-23T00:51:32.525Z,0.00
2022-11-23T00:52:31.781Z,0.00
2022-11-23T00:53:31.754Z,0.00
2022-11-23T00:54:35.025Z,0.00
2022-11-23T00:55:31.722Z,0.00
2022-11-23T00:56:31.722Z,0.00
2022-11-23T00:57:31.718Z,0.00
2022-11-23T00:58:31.695Z,0.00
2022-11-23T00:59:32.002Z,0.00
2022-11-23T01:00:32.533Z,0.00
2022-11-23T01:01:31.698Z,0.00
2022-11-23T01:02:31.672Z,0.00
2022-11-23T01:03:31.654Z,0.00
2022-11-23T01:04:31.635Z,0.00
2022-11-23T01:05:31.615Z,0.00
2022-11-23T01:06:32.534Z,0.00
2022-11-23T01:07:31.697Z,0.00
2022-11-23T01:08:31.583Z,0.00
2022-11-23T01:09:31.971Z,0.00
2022-11-23T01:10:31.605Z,0.00
2022-11-23T01:11:31.556Z,0.00
2022-11-23T01:12:38.534Z,0.00
2022-11-23T01:13:31.520Z,0.00
2022-11-23T01:14:32.038Z,0.00
2022-11-23T01:15:31.544Z,0.00
2022-11-23T01:16:31.500Z,0.00
2022-11-23T01:17:32.033Z,0.00
2022-11-23T01:18:31.500Z,0.00
2022-11-23T01:19:34.335Z,0.00
2022-11-23T01:20:31.465Z,0.00
2022-11-23T01:21:31.437Z,0.00
2022-11-23T01:22:31.458Z,0.00
2022-11-23T01:23:32.019Z,0.00
2022-11-23T01:24:31.406Z,0.00
2022-11-23T01:25:31.384Z,0.00
2022-11-23T01:26:35.042Z,0.00
2022-11-23T01:27:31.370Z,0.00
2022-11-23T01:28:31.388Z,0.00
2022-11-23T01:29:32.220Z,0.00
2022-11-23T01:30:32.357Z,0.00
2022-11-23T01:31:32.041Z,0.00
2022-11-23T01:32:32.045Z,0.00
2022-11-23T01:33:32.017Z,0.00
2022-11-23T01:34:31.614Z,0.00
2022-11-23T01:35:34.031Z,0.00
2022-11-23T01:36:31.274Z,0.00
2022-11-23T01:37:31.255Z,0.00
2022-11-23T01:38:31.259Z,0.00
2022-11-23T01:39:31.659Z,0.00
2022-11-23T01:40:31.250Z,0.00
2022-11-23T01:41:31.231Z,0.00
2022-11-23T01:42:31.208Z,0.00
2022-11-23T01:43:31.191Z,0.00
2022-11-23T01:44:31.222Z,0.00
2022-11-23T01:45:31.196Z,0.00
2022-11-23T01:46:34.030Z,0.00
2022-11-23T01:47:32.037Z,0.00
2022-11-23T01:48:31.130Z,0.00
2022-11-23T01:49:31.363Z,0.00
2022-11-23T01:50:32.048Z,0.00
2022-11-23T01:51:31.113Z,0.00
2022-11-23T01:52:31.092Z,0.00
2022-11-23T01:53:31.097Z,0.00
2022-11-23T01:54:31.106Z,0.00
2022-11-23T01:55:31.052Z,0.00
2022-11-23T01:56:31.053Z,0.00
2022-11-23T01:57:31.050Z,0.00
2022-11-23T01:58:31.035Z,0.00
2022-11-23T01:59:31.769Z,0.00
2022-11-23T02:00:33.524Z,0.00
2022-11-23T02:01:31.117Z,0.00
2022-11-23T02:02:30.991Z,0.00
2022-11-23T02:03:30.962Z,0.00
2022-11-23T02:04:37.533Z,0.00
2022-11-23T02:05:33.520Z,0.00
2022-11-23T02:06:31.551Z,0.00
2022-11-23T02:07:30.978Z,0.00
2022-11-23T02:08:30.922Z,0.00
2022-11-23T02:09:31.249Z,0.00
2022-11-23T02:10:30.901Z,0.00
2022-11-23T02:11:30.901Z,0.00
2022-11-23T02:12:30.894Z,0.00
2022-11-23T02:13:30.856Z,0.00
2022-11-23T02:14:30.858Z,0.00
2022-11-23T02:15:30.831Z,0.00
2022-11-23T02:16:30.823Z,0.00
2022-11-23T02:17:30.839Z,0.00
2022-11-23T02:18:30.822Z,0.00
2022-11-23T02:19:31.069Z,0.00
2022-11-23T02:20:30.805Z,0.00
2022-11-23T02:21:30.767Z,0.00
2022-11-23T02:22:31.086Z,0.00
2022-11-23T02:23:31.527Z,0.00
2022-11-23T02:24:30.742Z,0.00
2022-11-23T02:25:30.722Z,0.00
2022-11-23T02:26:30.716Z,0.00
2022-11-23T02:27:30.731Z,0.00
2022-11-23T02:28:33.532Z,0.00
2022-11-23T02:29:31.025Z,0.00
2022-11-23T02:30:30.679Z,0.00
2022-11-23T02:31:31.522Z,0.00
2022-11-23T02:32:30.655Z,0.00
2022-11-23T02:33:30.634Z,0.00
2022-11-23T02:34:30.655Z,0.00
2022-11-23T02:35:31.539Z,0.00
2022-11-23T02:36:30.610Z,0.00
2022-11-23T02:37:30.592Z,0.00
2022-11-23T02:38:30.601Z,0.00
2022-11-23T02:39:32.055Z,0.00
2022-11-23T02:40:30.580Z,0.00
2022-11-23T02:41:30.554Z,0.00
2022-11-23T02:42:30.532Z,0.00
2022-11-23T02:43:30.524Z,0.00
2022-11-23T02:44:30.519Z,0.00
2022-11-23T02:45:33.025Z,0.00
2022-11-23T02:46:30.502Z,0.00
2022-11-23T02:47:30.634Z,0.00
2022-11-23T02:48:30.478Z,0.00
2022-11-23T02:49:30.848Z,0.00
2022-11-23T02:50:30.450Z,0.00
2022-11-23T02:51:30.428Z,0.00
2022-11-23T02:52:30.443Z,0.00
2022-11-23T02:53:30.410Z,0.00
2022-11-23T02:54:37.097Z,0.00
2022-11-23T02:55:30.382Z,0.00
2022-11-23T02:56:30.390Z,0.00
2022-11-23T02:57:30.390Z,0.00
2022-11-23T02:58:30.365Z,0.00
2022-11-23T02:59:30.760Z,0.00
2022-11-23T03:00:31.066Z,0.00
2022-11-23T03:01:30.320Z,0.00
2022-11-23T03:02:30.316Z,0.00
2022-11-23T03:03:30.320Z,0.00
2022-11-23T03:04:30.299Z,0.00
2022-11-23T03:05:31.026Z,0.00
2022-11-23T03:06:30.271Z,0.00
2022-11-23T03:07:31.079Z,0.00
2022-11-23T03:08:30.253Z,0.00
2022-11-23T03:09:30.853Z,0.00
2022-11-23T03:10:30.244Z,0.00
2022-11-23T03:11:30.196Z,0.00
2022-11-23T03:12:30.201Z,0.00
2022-11-23T03:13:30.188Z,0.00
2022-11-23T03:14:30.185Z,0.00
2022-11-23T03:15:30.185Z,0.00
2022-11-23T03:16:31.042Z,0.00
2022-11-23T03:17:30.133Z,0.00
2022-11-23T03:18:31.069Z,0.00
2022-11-23T03:19:30.763Z,0.00
2022-11-23T03:20:30.111Z,0.00
2022-11-23T03:21:30.098Z,0.00
2022-11-23T03:22:30.091Z,0.00
2022-11-23T03:23:30.060Z,0.00
2022-11-23T03:24:32.063Z,0.00
2022-11-23T03:25:30.056Z,0.00
2022-11-23T03:26:30.088Z,0.00
2022-11-23T03:27:31.049Z,0.00
2022-11-23T03:28:30.027Z,0.00
2022-11-23T03:29:32.786Z,0.00
2022-11-23T03:30:30.036Z,0.00
2022-11-23T03:31:29.992Z,0.00
2022-11-23T03:32:29.971Z,0.00
2022-11-23T03:33:29.975Z,0.00
2022-11-23T03:34:29.949Z,0.00
2022-11-23T03:35:29.959Z,0.00
2022-11-23T03:36:29.940Z,0.00
2022-11-23T03:37:29.923Z,0.00
2022-11-23T03:38:29.903Z,0.00
2022-11-23T03:39:30.052Z,0.00
2022-11-23T03:40:29.883Z,0.00
2022-11-23T03:41:30.526Z,0.00
2022-11-23T03:42:29.996Z,0.00
2022-11-23T03:43:30.548Z,0.00
2022-11-23T03:44:29.842Z,0.00
2022-11-23T03:45:31.557Z,0.00
2022-11-23T03:46:29.833Z,0.00
2022-11-23T03:47:30.840Z,0.00
2022-11-23T03:48:29.798Z,0.00
2022-11-23T03:49:30.000Z,0.00
2022-11-23T03:50:29.807Z,0.00
2022-11-23T03:51:29.787Z,0.00
2022-11-23T03:52:29.753Z,0.00
2022-11-23T03:53:29.747Z,0.00
2022-11-23T03:54:32.524Z,0.00
2022-11-23T03:55:29.745Z,0.00
2022-11-23T03:56:29.704Z,0.00
2022-11-23T03:57:29.707Z,0.00
2022-11-23T03:58:29.703Z,0.00
2022-11-23T03:59:30.243Z,0.00
2022-11-23T04:00:29.663Z,0.00
2022-11-23T04:01:29.702Z,0.00
2022-11-23T04:02:29.639Z,0.00
2022-11-23T04:03:29.740Z,0.00
2022-11-23T04:04:29.618Z,0.00
2022-11-23T04:05:29.636Z,0.00
2022-11-23T04:06:29.611Z,0.00
2022-11-23T04:07:30.165Z,0.00
2022-11-23T04:08:29.584Z,0.00
2022-11-23T04:09:29.838Z,0.00
2022-11-23T04:10:29.552Z,0.00
2022-11-23T04:11:29.545Z,0.00
2022-11-23T04:12:30.034Z,0.00
2022-11-23T04:13:29.552Z,0.00
2022-11-23T04:14:29.527Z,0.00
2022-11-23T04:15:30.049Z,0.00
2022-11-23T04:16:29.524Z,0.00
2022-11-23T04:17:29.481Z,0.00
2022-11-23T04:18:29.488Z,0.00
2022-11-23T04:19:32.281Z,0.00
2022-11-23T04:20:32.036Z,0.00
2022-11-23T04:21:30.034Z,0.00
2022-11-23T04:22:29.448Z,0.00
2022-11-23T04:23:29.430Z,0.00
2022-11-23T04:24:29.420Z,0.00
2022-11-23T04:25:29.398Z,0.00
2022-11-23T04:26:29.381Z,0.00
2022-11-23T04:27:29.382Z,0.00
2022-11-23T04:28:29.370Z,0.00
2022-11-23T04:29:29.469Z,0.00
2022-11-23T04:30:29.365Z,0.00
2022-11-23T04:31:32.037Z,0.00
2022-11-23T04:32:29.308Z,0.00
2022-11-23T04:33:29.295Z,0.00
2022-11-23T04:34:29.285Z,0.00
2022-11-23T04:35:29.570Z,0.00
2022-11-23T04:36:29.266Z,0.00
2022-11-23T04:37:29.253Z,0.00
2022-11-23T04:38:29.246Z,0.00
2022-11-23T04:39:32.879Z,0.00
2022-11-23T04:40:29.561Z,0.00
2022-11-23T04:41:29.211Z,0.00
2022-11-23T04:42:29.205Z,0.00
2022-11-23T04:43:30.040Z,0.00
2022-11-23T04:44:29.208Z,0.00
2022-11-23T04:45:29.194Z,0.00
2022-11-23T04:46:29.176Z,0.00
2022-11-23T04:47:29.154Z,0.00
2022-11-23T04:48:29.153Z,0.00
2022-11-23T04:49:29.349Z,0.00
2022-11-23T04:50:29.103Z,0.00
2022-11-23T04:51:31.064Z,0.00
2022-11-23T04:52:29.083Z,0.00
2022-11-23T04:53:30.027Z,0.00
2022-11-23T04:54:29.081Z,0.00
2022-11-23T04:55:29.061Z,0.00
2022-11-23T04:56:29.060Z,0.00
2022-11-23T04:57:29.067Z,0.00
2022-11-23T04:58:34.208Z,0.00
2022-11-23T04:59:30.465Z,0.00
2022-11-23T05:00:29.526Z,0.00
2022-11-23T05:01:29.593Z,0.00
2022-11-23T05:02:29.023Z,0.00
2022-11-23T05:03:28.970Z,0.00
2022-11-23T05:04:31.527Z,0.00
2022-11-23T05:05:28.972Z,0.00
2022-11-23T05:06:28.927Z,0.00
2022-11-23T05:07:28.974Z,0.00
2022-11-23T05:08:29.527Z,0.00
2022-11-23T05:09:28.916Z,0.00
2022-11-23T05:10:29.057Z,0.00
2022-11-23T05:11:28.893Z,0.00
2022-11-23T05:12:28.863Z,0.00
2022-11-23T05:13:28.866Z,0.00
2022-11-23T05:14:28.842Z,0.00
2022-11-23T05:15:28.847Z,0.00
2022-11-23T05:16:28.821Z,0.00
2022-11-23T05:17:29.546Z,0.00
2022-11-23T05:18:28.843Z,0.00
2022-11-23T05:19:29.001Z,0.00
2022-11-23T05:20:28.788Z,0.00
2022-11-23T05:21:28.760Z,0.00
2022-11-23T05:22:28.772Z,0.00
2022-11-23T05:23:28.752Z,0.00
2022-11-23T05:24:28.731Z,0.00
2022-11-23T05:25:28.748Z,0.00
2022-11-23T05:26:35.528Z,0.00
2022-11-23T05:27:29.537Z,0.00
2022-11-23T05:28:44.031Z,0.00
2022-11-23T05:29:29.958Z,0.00
2022-11-23T05:30:28.666Z,0.00
2022-11-23T05:31:28.656Z,0.00
2022-11-23T05:32:28.669Z,0.00
2022-11-23T05:33:29.694Z,0.00
2022-11-23T05:34:28.652Z,0.00
2022-11-23T05:35:29.535Z,0.00
2022-11-23T05:36:28.596Z,0.00
2022-11-23T05:37:28.597Z,0.00
2022-11-23T05:38:28.574Z,0.00
2022-11-23T05:39:28.581Z,0.00
2022-11-23T05:40:28.564Z,0.00
2022-11-23T05:41:28.570Z,0.00
2022-11-23T05:42:28.535Z,0.00
2022-11-23T05:43:28.527Z,0.00
2022-11-23T05:44:28.512Z,0.00
2022-11-23T05:45:28.503Z,0.00
2022-11-23T05:46:28.501Z,0.00
2022-11-23T05:47:28.496Z,0.00
2022-11-23T05:48:28.474Z,0.00
2022-11-23T05:49:28.458Z,0.00
2022-11-23T05:50:28.455Z,0.00
2022-11-23T05:51:28.438Z,0.00
2022-11-23T05:52:28.423Z,0.00
2022-11-23T05:53:28.452Z,0.00
2022-11-23T05:54:28.421Z,0.00
2022-11-23T05:55:28.395Z,0.00
2022-11-23T05:56:28.398Z,0.00
2022-11-23T05:57:28.363Z,0.00
2022-11-23T05:58:28.368Z,0.00
2022-11-23T05:59:28.371Z,0.00
2022-11-23T06:00:28.333Z,0.00
2022-11-23T06:01:28.327Z,0.00
2022-11-23T06:02:28.330Z,0.00
2022-11-23T06:03:28.307Z,0.00
2022-11-23T06:04:28.366Z,0.00
2022-11-23T06:05:29.034Z,0.00
2022-11-23T06:06:28.283Z,0.00
2022-11-23T06:07:28.295Z,0.00
2022-11-23T06:08:28.247Z,0.00
2022-11-23T06:09:28.241Z,0.00
2022-11-23T06:10:28.224Z,0.00
2022-11-23T06:11:28.247Z,0.00
2022-11-23T06:12:28.197Z,0.00
2022-11-23T06:13:28.193Z,0.00
2022-11-23T06:14:28.172Z,0.00
2022-11-23T06:15:28.170Z,0.00
2022-11-23T06:16:28.155Z,0.00
2022-11-23T06:17:28.563Z,0.00
2022-11-23T06:18:28.136Z,0.00
2022-11-23T06:19:28.120Z,0.00
2022-11-23T06:20:28.130Z,0.00
2022-11-23T06:21:28.101Z,0.00
2022-11-23T06:22:28.115Z,0.00
2022-11-23T06:23:28.081Z,0.00
2022-11-23T06:24:28.078Z,0.00
2022-11-23T06:25:28.064Z,0.00
2022-11-23T06:26:28.057Z,0.00
2022-11-23T06:27:28.035Z,0.00
2022-11-23T06:28:28.051Z,0.00
2022-11-23T06:29:28.034Z,0.00
2022-11-23T06:30:28.006Z,0.00
2022-11-23T06:31:27.987Z,0.00
2022-11-23T06:32:27.973Z,0.00
2022-11-23T06:33:27.984Z,0.00
2022-11-23T06:34:27.963Z,4.00
2022-11-23T06:35:27.989Z,4.00
2022-11-23T06:36:27.950Z,0.00
2022-11-23T06:37:42.547Z,4.00
2022-11-23T06:38:27.904Z,4.00
2022-11-23T06:39:27.898Z,4.00
2022-11-23T06:40:27.894Z,8.00
2022-11-23T06:41:32.255Z,8.00
2022-11-23T06:42:43.338Z,8.00
2022-11-23T06:43:29.531Z,8.00
2022-11-23T06:44:27.845Z,12.00
2022-11-23T06:45:27.837Z,12.00
2022-11-23T06:46:27.824Z,12.00
2022-11-23T06:47:27.830Z,16.00
2022-11-23T06:48:27.840Z,20.00
2022-11-23T06:49:27.789Z,24.00
2022-11-23T06:50:27.787Z,24.00
2022-11-23T06:51:27.806Z,28.00
2022-11-23T06:52:27.770Z,32.00
2022-11-23T06:53:27.762Z,36.00
2022-11-23T06:54:28.767Z,36.00
2022-11-23T06:55:27.722Z,40.00
2022-11-23T06:56:27.707Z,44.00
2022-11-23T06:57:27.723Z,52.00
2022-11-23T06:58:28.550Z,52.00
2022-11-23T06:59:27.675Z,56.00
2022-11-23T07:00:27.661Z,60.00
2022-11-23T07:01:28.601Z,64.00
2022-11-23T07:02:27.636Z,68.00
2022-11-23T07:03:29.155Z,72.00
2022-11-23T07:04:27.626Z,80.00
2022-11-23T07:05:27.730Z,84.00
2022-11-23T07:06:30.534Z,92.00
2022-11-23T07:07:27.655Z,104.00
2022-11-23T07:08:27.602Z,104.00
2022-11-23T07:09:27.619Z,104.00
2022-11-23T07:10:28.567Z,120.00
2022-11-23T07:11:27.561Z,120.00
2022-11-23T07:12:27.542Z,124.00
2022-11-23T07:13:27.523Z,140.00
2022-11-23T07:14:27.567Z,128.00
2022-11-23T07:15:27.522Z,136.00
2022-11-23T07:16:27.485Z,144.00
2022-11-23T07:17:27.570Z,148.00
2022-11-23T07:18:27.467Z,156.00
2022-11-23T07:19:27.455Z,164.00
2022-11-23T07:20:30.029Z,132.00
2022-11-23T07:21:34.050Z,124.00
2022-11-23T07:22:27.425Z,156.00
2022-11-23T07:23:27.438Z,172.00
2022-11-23T07:24:27.401Z,188.00
2022-11-23T07:25:30.052Z,168.00
2022-11-23T07:26:27.387Z,168.00
2022-11-23T07:27:27.371Z,196.00
2022-11-23T07:28:27.370Z,204.00
2022-11-23T07:29:27.561Z,256.00
2022-11-23T07:30:29.541Z,280.00
2022-11-23T07:31:27.357Z,300.00
2022-11-23T07:32:27.335Z,300.00
2022-11-23T07:33:27.321Z,340.00
2022-11-23T07:34:27.287Z,380.00
2022-11-23T07:35:27.284Z,400.00
2022-11-23T07:36:27.290Z,384.00
2022-11-23T07:37:28.041Z,348.00
2022-11-23T07:38:27.248Z,280.00
2022-11-23T07:39:48.865Z,204.00
2022-11-23T07:40:29.030Z,176.00
2022-11-23T07:41:27.277Z,172.00
2022-11-23T07:42:33.934Z,184.00
2022-11-23T07:43:28.198Z,184.00
2022-11-23T07:44:27.172Z,180.00
2022-11-23T07:45:27.170Z,228.00
2022-11-23T07:46:28.025Z,284.00
2022-11-23T07:47:27.180Z,332.00
2022-11-23T07:48:29.733Z,340.00
2022-11-23T07:49:28.135Z,356.00
2022-11-23T07:50:27.113Z,324.00
2022-11-23T07:51:27.109Z,336.00
2022-11-23T07:52:27.088Z,368.00
2022-11-23T07:53:29.066Z,416.00
2022-11-23T07:54:27.070Z,436.00
2022-11-23T07:55:27.052Z,460.00
2022-11-23T07:56:27.049Z,464.00
2022-11-23T07:57:27.552Z,548.00
2022-11-23T07:58:27.047Z,584.00
2022-11-23T07:59:27.064Z,600.00
2022-11-23T08:00:27.011Z,596.00
2022-11-23T08:01:27.547Z,584.00
2022-11-23T08:02:29.583Z,628.00
2022-11-23T08:03:28.895Z,612.00
2022-11-23T08:04:33.864Z,608.00
2022-11-23T08:05:26.959Z,556.00
2022-11-23T08:06:26.939Z,588.00
2022-11-23T08:07:26.979Z,572.00
2022-11-23T08:08:26.940Z,536.00
2022-11-23T08:09:26.914Z,476.00
2022-11-23T08:10:26.914Z,484.00
2022-11-23T08:11:29.536Z,524.00
2022-11-23T08:12:26.876Z,620.00
2022-11-23T08:13:26.870Z,656.00
2022-11-23T08:14:26.863Z,608.00
2022-11-23T08:15:26.852Z,628.00
2022-11-23T08:16:26.847Z,664.00
2022-11-23T08:17:27.063Z,636.00
2022-11-23T08:18:26.810Z,576.00
2022-11-23T08:19:26.805Z,496.00
2022-11-23T08:20:27.537Z,476.00
2022-11-23T08:21:26.758Z,536.00
2022-11-23T08:22:27.076Z,604.00
2022-11-23T08:23:29.532Z,660.00
2022-11-23T08:24:33.997Z,720.00
2022-11-23T08:25:29.553Z,756.00
2022-11-23T08:26:26.729Z,828.00
2022-11-23T08:27:26.727Z,828.00
2022-11-23T08:28:26.695Z,840.00
2022-11-23T08:29:27.576Z,828.00
2022-11-23T08:30:41.572Z,868.00
2022-11-23T08:31:26.655Z,900.00
2022-11-23T08:32:26.665Z,896.00
2022-11-23T08:33:26.639Z,968.00
2022-11-23T08:34:27.546Z,1056.00
2022-11-23T08:35:27.546Z,1080.00
2022-11-23T08:36:28.566Z,1084.00
2022-11-23T08:37:26.582Z,1068.00
2022-11-23T08:38:26.597Z,1072.00
2022-11-23T08:39:26.590Z,1144.00
2022-11-23T08:40:26.649Z,1124.00
2022-11-23T08:41:26.549Z,1056.00
2022-11-23T08:42:26.538Z,1048.00
2022-11-23T08:43:26.520Z,1104.00
2022-11-23T08:44:26.531Z,1144.00
2022-11-23T08:45:26.529Z,1180.00
2022-11-23T08:46:26.501Z,1248.00
2022-11-23T08:47:26.486Z,1304.00
2022-11-23T08:48:26.491Z,1356.00
2022-11-23T08:49:26.463Z,1348.00
2022-11-23T08:50:26.440Z,1348.00
2022-11-23T08:51:26.436Z,1372.00
2022-11-23T08:52:26.566Z,1384.00
2022-11-23T08:53:26.408Z,1372.00
2022-11-23T08:54:27.040Z,1428.00
2022-11-23T08:55:26.579Z,1480.00
2022-11-23T08:56:26.377Z,1472.00
2022-11-23T08:57:26.389Z,1452.00
2022-11-23T08:58:26.355Z,1508.00
2022-11-23T08:59:26.363Z,1548.00
2022-11-23T09:00:26.342Z,1532.00
2022-11-23T09:01:26.416Z,1532.00
2022-11-23T09:02:26.322Z,1512.00
2022-11-23T09:03:26.288Z,1544.00
2022-11-23T09:04:26.294Z,1576.00
2022-11-23T09:05:26.271Z,1640.00
2022-11-23T09:06:26.327Z,1616.00
2022-11-23T09:07:26.322Z,1568.00
2022-11-23T09:08:26.255Z,1604.00
2022-11-23T09:09:26.230Z,1584.00
2022-11-23T09:10:27.041Z,1584.00
2022-11-23T09:11:26.205Z,1588.00
2022-11-23T09:12:26.232Z,1572.00
2022-11-23T09:13:29.034Z,1592.00
2022-11-23T09:14:26.176Z,1612.00
2022-11-23T09:15:26.174Z,1592.00
2022-11-23T09:16:30.999Z,1620.00
2022-11-23T09:17:27.181Z,1664.00
2022-11-23T09:18:26.133Z,1668.00
2022-11-23T09:19:26.559Z,1708.00
2022-11-23T09:20:26.119Z,1700.00
2022-11-23T09:21:27.064Z,1692.00
2022-11-23T09:22:26.090Z,1692.00
2022-11-23T09:23:27.044Z,1756.00
2022-11-23T09:24:30.373Z,1756.00
2022-11-23T09:25:26.075Z,1768.00
2022-11-23T09:26:27.049Z,1856.00
2022-11-23T09:27:26.026Z,1920.00
2022-11-23T09:28:26.075Z,1892.00
2022-11-23T09:29:26.010Z,1896.00
2022-11-23T09:30:26.035Z,1880.00
2022-11-23T09:31:25.983Z,1996.00
2022-11-23T09:32:26.003Z,2000.00
2022-11-23T09:33:25.979Z,1940.00
2022-11-23T09:34:28.547Z,1940.00
2022-11-23T09:35:25.947Z,1980.00
2022-11-23T09:36:26.029Z,2008.00
2022-11-23T09:37:25.921Z,2036.00
2022-11-23T09:38:51.585Z,2080.00
2022-11-23T09:39:26.900Z,2072.00
2022-11-23T09:40:28.554Z,2068.00
2022-11-23T09:41:25.869Z,2116.00
2022-11-23T09:42:26.077Z,2116.00
2022-11-23T09:43:25.859Z,2140.00
2022-11-23T09:44:25.844Z,2188.00
2022-11-23T09:45:25.840Z,2360.00
2022-11-23T09:46:25.821Z,2260.00
2022-11-23T09:47:26.542Z,2268.00
2022-11-23T09:48:25.820Z,2244.00
2022-11-23T09:49:25.828Z,2280.00
2022-11-23T09:50:25.778Z,2340.00
2022-11-23T09:51:25.770Z,2192.00
2022-11-23T09:52:25.758Z,2432.00
2022-11-23T09:53:25.771Z,2064.00
2022-11-23T09:54:32.801Z,1956.00
2022-11-23T09:55:25.716Z,2088.00
2022-11-23T09:56:25.710Z,2016.00
2022-11-23T09:57:26.542Z,2288.00
2022-11-23T09:58:25.678Z,2036.00
2022-11-23T09:59:27.577Z,1984.00
2022-11-23T10:00:26.541Z,1948.00
2022-11-23T10:01:25.738Z,1820.00
2022-11-23T10:02:25.651Z,1956.00
2022-11-23T10:03:25.632Z,1684.00
2022-11-23T10:04:28.555Z,2068.00
2022-11-23T10:05:26.602Z,2104.00
2022-11-23T10:06:25.600Z,1700.00
2022-11-23T10:07:25.651Z,1844.00
2022-11-23T10:08:25.579Z,1904.00
2022-11-23T10:09:25.558Z,1940.00
2022-11-23T10:10:25.554Z,1904.00
2022-11-23T10:11:25.565Z,1856.00
2022-11-23T10:12:25.538Z,1832.00
2022-11-23T10:13:25.544Z,1812.00
2022-11-23T10:14:25.510Z,1804.00
2022-11-23T10:15:32.045Z,1808.00
2022-11-23T10:16:25.487Z,1800.00
2022-11-23T10:17:25.496Z,1776.00
2022-11-23T10:18:25.465Z,1744.00
2022-11-23T10:19:40.056Z,1756.00
2022-11-23T10:20:25.436Z,1724.00
2022-11-23T10:21:25.455Z,1704.00
2022-11-23T10:22:25.443Z,1688.00
2022-11-23T10:23:25.417Z,1680.00
2022-11-23T10:24:25.396Z,1680.00
2022-11-23T10:25:25.382Z,1684.00
2022-11-23T10:26:25.395Z,1652.00
2022-11-23T10:27:25.368Z,1828.00
2022-11-23T10:28:25.401Z,1640.00
2022-11-23T10:29:25.341Z,1736.00
2022-11-23T10:30:25.331Z,1672.00
2022-11-23T10:31:25.321Z,1644.00
2022-11-23T10:32:26.338Z,1620.00
2022-11-23T10:33:25.295Z,1588.00
2022-11-23T10:34:25.578Z,1572.00
2022-11-23T10:35:25.288Z,1632.00
2022-11-23T10:36:25.295Z,1672.00
2022-11-23T10:37:28.043Z,1688.00
2022-11-23T10:38:28.051Z,1928.00
2022-11-23T10:39:25.243Z,1872.00
2022-11-23T10:40:25.242Z,1928.00
2022-11-23T10:41:26.079Z,2000.00
2022-11-23T10:42:25.192Z,2328.00
2022-11-23T10:43:32.051Z,2208.00
2022-11-23T10:44:28.049Z,2184.00
2022-11-23T10:45:25.189Z,2188.00
2022-11-23T10:46:25.172Z,2148.00
2022-11-23T10:47:25.141Z,2140.00
2022-11-23T10:48:25.127Z,2204.00
2022-11-23T10:49:25.132Z,2016.00
2022-11-23T10:50:28.056Z,2412.00
2022-11-23T10:51:26.077Z,1696.00
2022-11-23T10:52:25.112Z,2424.00
2022-11-23T10:53:25.086Z,1728.00
2022-11-23T10:54:26.044Z,2448.00
2022-11-23T10:55:25.051Z,2492.00
2022-11-23T10:56:25.045Z,2544.00
2022-11-23T10:57:25.039Z,2720.00
2022-11-23T10:58:25.026Z,3524.00
2022-11-23T10:59:25.032Z,2260.00
2022-11-23T11:00:30.226Z,2764.00
2022-11-23T11:01:26.029Z,2468.00
2022-11-23T11:02:27.540Z,2356.00
2022-11-23T11:03:24.969Z,2768.00
2022-11-23T11:04:45.974Z,2192.00
2022-11-23T11:05:40.208Z,1704.00
2022-11-23T11:06:26.136Z,2816.00
2022-11-23T11:07:25.005Z,2828.00
2022-11-23T11:08:24.899Z,2924.00
2022-11-23T11:09:25.978Z,1712.00
2022-11-23T11:10:27.541Z,2776.00
2022-11-23T11:11:24.870Z,2796.00
2022-11-23T11:12:24.876Z,2876.00
2022-11-23T11:13:25.546Z,2800.00
2022-11-23T11:14:24.855Z,2792.00
2022-11-23T11:15:27.552Z,2820.00
2022-11-23T11:16:24.999Z,2836.00
2022-11-23T11:17:24.817Z,2920.00
2022-11-23T11:18:24.789Z,2960.00
2022-11-23T11:19:24.819Z,3024.00
2022-11-23T11:20:24.778Z,3056.00
2022-11-23T11:21:31.571Z,3132.00
2022-11-23T11:22:27.562Z,3164.00
2022-11-23T11:23:25.555Z,3256.00
2022-11-23T11:24:24.728Z,3184.00
2022-11-23T11:25:26.580Z,2020.00
2022-11-23T11:26:25.676Z,3112.00
2022-11-23T11:27:25.563Z,3136.00
2022-11-23T11:28:25.554Z,3136.00
2022-11-23T11:29:24.677Z,3128.00
2022-11-23T11:30:24.662Z,3160.00
2022-11-23T11:31:26.587Z,1752.00
2022-11-23T11:32:39.546Z,3180.00
2022-11-23T11:33:24.639Z,3192.00
2022-11-23T11:34:24.622Z,3172.00
2022-11-23T11:35:24.610Z,3176.00
2022-11-23T11:36:24.767Z,3256.00
2022-11-23T11:37:25.106Z,1780.00
2022-11-23T11:38:24.583Z,1776.00
2022-11-23T11:39:24.565Z,3228.00
2022-11-23T11:40:24.552Z,3272.00
2022-11-23T11:41:24.542Z,2568.00
2022-11-23T11:42:25.056Z,3316.00
2022-11-23T11:43:31.445Z,3320.00
2022-11-23T11:44:25.512Z,3324.00
2022-11-23T11:45:24.549Z,3336.00
2022-11-23T11:46:29.391Z,3444.00
2022-11-23T11:47:24.491Z,3516.00
2022-11-23T11:48:24.464Z,3444.00
2022-11-23T11:49:25.056Z,3340.00
2022-11-23T11:50:30.011Z,3412.00
2022-11-23T11:51:25.592Z,3396.00
2022-11-23T11:52:27.048Z,3448.00
2022-11-23T11:53:27.073Z,3448.00
2022-11-23T11:54:24.397Z,3472.00
2022-11-23T11:55:24.401Z,1724.00
2022-11-23T11:56:24.569Z,3556.00
2022-11-23T11:57:24.649Z,3480.00
2022-11-23T11:58:25.050Z,3552.00
2022-11-23T11:59:24.346Z,3584.00
2022-11-23T12:00:24.336Z,3608.00
2022-11-23T12:01:24.339Z,3632.00
2022-11-23T12:02:24.443Z,3632.00
2022-11-23T12:03:24.295Z,3644.00
2022-11-23T12:04:24.284Z,3676.00
2022-11-23T12:05:25.049Z,3712.00
2022-11-23T12:06:26.828Z,3708.00
2022-11-23T12:07:24.276Z,3720.00
2022-11-23T12:08:24.571Z,3756.00
2022-11-23T12:09:24.252Z,3772.00
2022-11-23T12:10:24.215Z,3776.00
2022-11-23T12:11:25.065Z,3800.00
2022-11-23T12:12:29.604Z,3820.00
2022-11-23T12:13:24.202Z,3792.00
2022-11-23T12:14:24.580Z,3844.00
2022-11-23T12:15:48.301Z,3864.00
2022-11-23T12:16:25.168Z,3856.00
2022-11-23T12:17:32.923Z,3912.00
2022-11-23T12:18:25.149Z,3992.00
2022-11-23T12:19:27.044Z,3996.00
2022-11-23T12:20:25.134Z,4016.00
2022-11-23T12:21:24.141Z,3972.00
2022-11-23T12:22:27.060Z,3972.00
2022-11-23T12:23:24.077Z,3972.00
2022-11-23T12:24:24.087Z,3968.00
2022-11-23T12:25:24.067Z,4000.00
2022-11-23T12:26:26.577Z,4008.00
2022-11-23T12:27:24.547Z,4036.00
2022-11-23T12:28:24.031Z,4056.00
2022-11-23T12:29:24.552Z,4068.00
2022-11-23T12:30:24.082Z,4080.00
2022-11-23T12:31:24.016Z,4088.00
2022-11-23T12:32:24.096Z,4092.00
2022-11-23T12:33:25.030Z,4116.00
2022-11-23T12:34:23.958Z,4120.00
2022-11-23T12:35:23.955Z,4124.00
2022-11-23T12:36:24.164Z,4140.00
2022-11-23T12:37:24.078Z,4152.00
2022-11-23T12:38:23.914Z,4160.00
2022-11-23T12:39:23.894Z,4172.00
2022-11-23T12:40:23.886Z,4136.00
2022-11-23T12:41:24.108Z,4140.00
2022-11-23T12:42:24.551Z,4176.00
2022-11-23T12:43:23.852Z,4176.00
2022-11-23T12:44:24.556Z,4180.00
2022-11-23T12:45:23.826Z,4200.00
2022-11-23T12:46:23.820Z,4196.00